sensor_id;sensor_type;location;lat;lon;timestamp;temperature;humidity
20670;DHT22;10494;50.868;4.180;2022-09-27T00:02:15;11.50;99.90
20670;DHT22;10494;50.868;4.180;2022-09-27T00:04:40;11.50;99.90
20670;DHT22;10494;50.868;4.180;2022-09-27T00:07:06;11.50;99.90
20670;DHT22;10494;50.868;4.180;2022-09-27T00:09:32;11.30;99.90
20670;DHT22;10494;50.868;4.180;2022-09-27T00:11:59;11.20;99.90
20670;DHT22;10494;50.868;4.180;2022-09-27T00:14:24;11.00;99.90
20670;DHT22;10494;50.868;4.180;2022-09-27T00:16:50;10.90;99.90
20670;DHT22;10494;50.868;4.180;2022-09-27T00:19:19;11.00;99.90
20670;DHT22;10494;50.868;4.180;2022-09-27T00:21:46;10.80;99.90
20670;DHT22;10494;50.868;4.180;2022-09-27T00:24:18;10.80;99.90
20670;DHT22;10494;50.868;4.180;2022-09-27T00:26:44;10.70;99.90
20670;DHT22;10494;50.868;4.180;2022-09-27T00:29:11;10.60;99.90
20670;DHT22;10494;50.868;4.180;2022-09-27T00:31:37;10.70;99.90
20670;DHT22;10494;50.868;4.180;2022-09-27T00:34:04;10.70;99.90
20670;DHT22;10494;50.868;4.180;2022-09-27T00:36:31;10.70;99.90
20670;DHT22;10494;50.868;4.180;2022-09-27T00:38:57;10.60;99.90
20670;DHT22;10494;50.868;4.180;2022-09-27T00:41:29;10.50;99.90
20670;DHT22;10494;50.868;4.180;2022-09-27T00:44:01;10.50;99.90
20670;DHT22;10494;50.868;4.180;2022-09-27T00:46:47;10.60;99.90
20670;DHT22;10494;50.868;4.180;2022-09-27T00:51:48;10.70;99.90
20670;DHT22;10494;50.868;4.180;2022-09-27T00:54:16;10.70;99.90
20670;DHT22;10494;50.868;4.180;2022-09-27T00:56:43;10.70;99.90
20670;DHT22;10494;50.868;4.180;2022-09-27T00:59:26;10.90;99.90
20670;DHT22;10494;50.868;4.180;2022-09-27T01:01:53;10.90;99.90
20670;DHT22;10494;50.868;4.180;2022-09-27T01:04:21;11.00;99.90
20670;DHT22;10494;50.868;4.180;2022-09-27T01:06:49;10.80;99.90
20670;DHT22;10494;50.868;4.180;2022-09-27T01:09:15;11.00;99.90
20670;DHT22;10494;50.868;4.180;2022-09-27T01:22:47;11.00;99.90
20670;DHT22;10494;50.868;4.180;2022-09-27T01:28:54;10.90;99.90
20670;DHT22;10494;50.868;4.180;2022-09-27T01:31:40;10.80;99.90
20670;DHT22;10494;50.868;4.180;2022-09-27T01:39:25;10.70;99.90
20670;DHT22;10494;50.868;4.180;2022-09-27T01:42:10;10.60;99.90
20670;DHT22;10494;50.868;4.180;2022-09-27T01:47:49;11.00;99.90
20670;DHT22;10494;50.868;4.180;2022-09-27T01:50:38;10.80;99.90
20670;DHT22;10494;50.868;4.180;2022-09-27T01:53:14;10.70;99.90
20670;DHT22;10494;50.868;4.180;2022-09-27T01:55:42;10.60;99.90
20670;DHT22;10494;50.868;4.180;2022-09-27T01:58:15;10.60;99.90
20670;DHT22;10494;50.868;4.180;2022-09-27T02:00:44;10.60;99.90
20670;DHT22;10494;50.868;4.180;2022-09-27T02:03:15;10.60;99.90
20670;DHT22;10494;50.868;4.180;2022-09-27T02:05:47;10.70;99.90
20670;DHT22;10494;50.868;4.180;2022-09-27T02:08:36;10.60;99.90
20670;DHT22;10494;50.868;4.180;2022-09-27T02:11:10;10.70;99.90
20670;DHT22;10494;50.868;4.180;2022-09-27T02:19:58;10.50;99.90
20670;DHT22;10494;50.868;4.180;2022-09-27T02:25:31;10.50;99.90
20670;DHT22;10494;50.868;4.180;2022-09-27T02:28:13;10.50;99.90
20670;DHT22;10494;50.868;4.180;2022-09-27T02:30:44;10.40;99.90
20670;DHT22;10494;50.868;4.180;2022-09-27T02:33:10;10.40;99.90
20670;DHT22;10494;50.868;4.180;2022-09-27T02:35:35;10.40;99.90
20670;DHT22;10494;50.868;4.180;2022-09-27T02:38:03;10.30;99.90
20670;DHT22;10494;50.868;4.180;2022-09-27T02:40:33;10.30;99.90
20670;DHT22;10494;50.868;4.180;2022-09-27T02:42:59;10.20;99.90
20670;DHT22;10494;50.868;4.180;2022-09-27T02:45:43;10.20;99.90
20670;DHT22;10494;50.868;4.180;2022-09-27T02:54:20;10.30;99.90
20670;DHT22;10494;50.868;4.180;2022-09-27T03:02:17;10.40;99.90
20670;DHT22;10494;50.868;4.180;2022-09-27T03:04:54;10.60;99.90
20670;DHT22;10494;50.868;4.180;2022-09-27T03:07:21;10.50;99.90
20670;DHT22;10494;50.868;4.180;2022-09-27T03:09:50;10.60;99.90
20670;DHT22;10494;50.868;4.180;2022-09-27T03:12:17;10.60;99.90
20670;DHT22;10494;50.868;4.180;2022-09-27T03:14:47;10.60;99.90
20670;DHT22;10494;50.868;4.180;2022-09-27T03:17:13;10.50;99.90
20670;DHT22;10494;50.868;4.180;2022-09-27T03:19:39;10.50;99.90
20670;DHT22;10494;50.868;4.180;2022-09-27T03:22:05;10.50;99.90
20670;DHT22;10494;50.868;4.180;2022-09-27T03:24:31;10.70;99.90
20670;DHT22;10494;50.868;4.180;2022-09-27T03:26:57;10.70;99.90
20670;DHT22;10494;50.868;4.180;2022-09-27T03:29:22;10.60;99.90
20670;DHT22;10494;50.868;4.180;2022-09-27T03:31:48;10.50;99.90
20670;DHT22;10494;50.868;4.180;2022-09-27T03:34:14;10.50;99.90
20670;DHT22;10494;50.868;4.180;2022-09-27T03:36:39;10.50;99.90
20670;DHT22;10494;50.868;4.180;2022-09-27T03:39:05;10.50;99.90
20670;DHT22;10494;50.868;4.180;2022-09-27T03:41:31;10.40;99.90
20670;DHT22;10494;50.868;4.180;2022-09-27T03:43:56;10.40;99.90
20670;DHT22;10494;50.868;4.180;2022-09-27T03:46:24;10.30;99.90
20670;DHT22;10494;50.868;4.180;2022-09-27T03:48:50;10.30;99.90
20670;DHT22;10494;50.868;4.180;2022-09-27T03:51:16;10.20;99.90
20670;DHT22;10494;50.868;4.180;2022-09-27T03:53:41;10.10;99.90
20670;DHT22;10494;50.868;4.180;2022-09-27T03:56:08;10.10;99.90
20670;DHT22;10494;50.868;4.180;2022-09-27T03:58:33;10.10;99.90
20670;DHT22;10494;50.868;4.180;2022-09-27T04:00:59;10.20;99.90
20670;DHT22;10494;50.868;4.180;2022-09-27T04:03:24;10.30;99.90
20670;DHT22;10494;50.868;4.180;2022-09-27T04:05:53;10.20;99.90
20670;DHT22;10494;50.868;4.180;2022-09-27T04:08:19;10.20;99.90
20670;DHT22;10494;50.868;4.180;2022-09-27T04:10:46;10.20;99.90
20670;DHT22;10494;50.868;4.180;2022-09-27T04:13:12;10.10;99.90
20670;DHT22;10494;50.868;4.180;2022-09-27T04:15:38;10.10;99.90
20670;DHT22;10494;50.868;4.180;2022-09-27T04:18:04;10.20;99.90
20670;DHT22;10494;50.868;4.180;2022-09-27T04:20:30;10.00;99.90
20670;DHT22;10494;50.868;4.180;2022-09-27T04:22:56;10.00;99.90
20670;DHT22;10494;50.868;4.180;2022-09-27T04:25:22;9.90;99.90
20670;DHT22;10494;50.868;4.180;2022-09-27T04:27:47;9.90;99.90
20670;DHT22;10494;50.868;4.180;2022-09-27T04:30:16;10.00;99.90
20670;DHT22;10494;50.868;4.180;2022-09-27T04:32:43;10.00;99.90
20670;DHT22;10494;50.868;4.180;2022-09-27T04:35:10;10.10;99.90
20670;DHT22;10494;50.868;4.180;2022-09-27T04:37:54;10.40;99.90
20670;DHT22;10494;50.868;4.180;2022-09-27T04:40:20;10.30;99.90
20670;DHT22;10494;50.868;4.180;2022-09-27T04:42:50;10.20;99.90
20670;DHT22;10494;50.868;4.180;2022-09-27T04:45:16;10.20;99.90
20670;DHT22;10494;50.868;4.180;2022-09-27T04:47:46;10.10;99.90
20670;DHT22;10494;50.868;4.180;2022-09-27T04:50:13;10.00;99.90
20670;DHT22;10494;50.868;4.180;2022-09-27T04:52:39;9.90;99.90
20670;DHT22;10494;50.868;4.180;2022-09-27T04:55:06;9.90;99.90
20670;DHT22;10494;50.868;4.180;2022-09-27T04:57:32;9.80;99.90
20670;DHT22;10494;50.868;4.180;2022-09-27T04:59:58;9.80;99.90
20670;DHT22;10494;50.868;4.180;2022-09-27T05:02:25;9.80;99.90
20670;DHT22;10494;50.868;4.180;2022-09-27T05:04:52;9.70;99.90
20670;DHT22;10494;50.868;4.180;2022-09-27T05:07:17;9.70;99.90
20670;DHT22;10494;50.868;4.180;2022-09-27T05:09:44;9.70;99.90
20670;DHT22;10494;50.868;4.180;2022-09-27T05:12:10;9.70;99.90
20670;DHT22;10494;50.868;4.180;2022-09-27T05:14:36;9.70;99.90
20670;DHT22;10494;50.868;4.180;2022-09-27T05:17:02;9.70;99.90
20670;DHT22;10494;50.868;4.180;2022-09-27T05:19:28;9.70;99.90
20670;DHT22;10494;50.868;4.180;2022-09-27T05:21:53;9.70;99.90
20670;DHT22;10494;50.868;4.180;2022-09-27T05:24:19;9.70;99.90
20670;DHT22;10494;50.868;4.180;2022-09-27T05:26:46;9.80;99.90
20670;DHT22;10494;50.868;4.180;2022-09-27T05:29:11;9.70;99.90
20670;DHT22;10494;50.868;4.180;2022-09-27T05:31:37;9.70;99.90
20670;DHT22;10494;50.868;4.180;2022-09-27T05:34:02;9.70;99.90
20670;DHT22;10494;50.868;4.180;2022-09-27T05:36:28;9.60;99.90
20670;DHT22;10494;50.868;4.180;2022-09-27T05:38:55;9.60;99.90
20670;DHT22;10494;50.868;4.180;2022-09-27T05:41:20;9.60;99.90
20670;DHT22;10494;50.868;4.180;2022-09-27T05:43:46;9.70;99.90
20670;DHT22;10494;50.868;4.180;2022-09-27T05:46:11;9.70;99.90
20670;DHT22;10494;50.868;4.180;2022-09-27T05:48:37;9.80;99.90
20670;DHT22;10494;50.868;4.180;2022-09-27T05:51:03;9.80;99.90
20670;DHT22;10494;50.868;4.180;2022-09-27T05:53:29;9.80;99.90
20670;DHT22;10494;50.868;4.180;2022-09-27T05:56:00;9.90;99.90
20670;DHT22;10494;50.868;4.180;2022-09-27T05:58:25;10.00;99.90
20670;DHT22;10494;50.868;4.180;2022-09-27T06:00:52;10.00;99.90
20670;DHT22;10494;50.868;4.180;2022-09-27T06:03:18;9.90;99.90
20670;DHT22;10494;50.868;4.180;2022-09-27T06:05:44;10.00;99.90
20670;DHT22;10494;50.868;4.180;2022-09-27T06:08:11;10.10;99.90
20670;DHT22;10494;50.868;4.180;2022-09-27T06:10:38;10.00;99.90
20670;DHT22;10494;50.868;4.180;2022-09-27T06:13:09;9.90;99.90
20670;DHT22;10494;50.868;4.180;2022-09-27T06:15:36;9.90;99.90
20670;DHT22;10494;50.868;4.180;2022-09-27T06:18:14;9.90;99.90
20670;DHT22;10494;50.868;4.180;2022-09-27T06:20:42;9.70;99.90
20670;DHT22;10494;50.868;4.180;2022-09-27T06:23:13;9.80;99.90
20670;DHT22;10494;50.868;4.180;2022-09-27T06:25:40;9.70;99.90
20670;DHT22;10494;50.868;4.180;2022-09-27T06:28:06;9.70;99.90
20670;DHT22;10494;50.868;4.180;2022-09-27T06:30:32;9.70;99.90
20670;DHT22;10494;50.868;4.180;2022-09-27T06:32:59;9.80;99.90
20670;DHT22;10494;50.868;4.180;2022-09-27T06:35:26;10.10;99.90
20670;DHT22;10494;50.868;4.180;2022-09-27T06:37:52;10.30;99.90
20670;DHT22;10494;50.868;4.180;2022-09-27T06:40:18;10.50;99.90
20670;DHT22;10494;50.868;4.180;2022-09-27T06:42:44;10.60;99.90
20670;DHT22;10494;50.868;4.180;2022-09-27T06:45:11;10.60;99.90
20670;DHT22;10494;50.868;4.180;2022-09-27T06:47:37;10.50;99.90
20670;DHT22;10494;50.868;4.180;2022-09-27T06:50:03;10.50;99.90
20670;DHT22;10494;50.868;4.180;2022-09-27T06:52:33;10.30;99.90
20670;DHT22;10494;50.868;4.180;2022-09-27T06:55:00;10.40;99.90
20670;DHT22;10494;50.868;4.180;2022-09-27T06:57:26;10.60;99.90
20670;DHT22;10494;50.868;4.180;2022-09-27T07:00:11;10.50;99.90
20670;DHT22;10494;50.868;4.180;2022-09-27T07:02:49;10.60;99.90
20670;DHT22;10494;50.868;4.180;2022-09-27T07:05:16;10.50;99.90
20670;DHT22;10494;50.868;4.180;2022-09-27T07:07:41;10.60;99.90
20670;DHT22;10494;50.868;4.180;2022-09-27T07:10:08;10.80;99.90
20670;DHT22;10494;50.868;4.180;2022-09-27T07:12:35;10.70;99.90
20670;DHT22;10494;50.868;4.180;2022-09-27T07:15:01;10.70;99.90
20670;DHT22;10494;50.868;4.180;2022-09-27T07:17:27;11.00;99.90
20670;DHT22;10494;50.868;4.180;2022-09-27T07:19:52;11.10;99.90
20670;DHT22;10494;50.868;4.180;2022-09-27T07:22:19;11.20;99.90
20670;DHT22;10494;50.868;4.180;2022-09-27T07:24:44;11.00;99.90
20670;DHT22;10494;50.868;4.180;2022-09-27T07:27:10;10.90;99.90
20670;DHT22;10494;50.868;4.180;2022-09-27T07:29:36;10.90;99.90
20670;DHT22;10494;50.868;4.180;2022-09-27T07:32:03;10.90;99.90
20670;DHT22;10494;50.868;4.180;2022-09-27T07:34:28;10.70;99.90
20670;DHT22;10494;50.868;4.180;2022-09-27T07:37:03;10.80;99.90
20670;DHT22;10494;50.868;4.180;2022-09-27T07:39:30;10.90;99.90
20670;DHT22;10494;50.868;4.180;2022-09-27T07:41:57;11.10;99.90
20670;DHT22;10494;50.868;4.180;2022-09-27T07:44:23;11.10;99.90
20670;DHT22;10494;50.868;4.180;2022-09-27T07:46:48;11.00;99.90
20670;DHT22;10494;50.868;4.180;2022-09-27T07:49:14;11.00;99.90
20670;DHT22;10494;50.868;4.180;2022-09-27T07:51:40;10.90;99.90
20670;DHT22;10494;50.868;4.180;2022-09-27T07:54:05;11.10;99.90
20670;DHT22;10494;50.868;4.180;2022-09-27T07:56:31;11.10;99.90
20670;DHT22;10494;50.868;4.180;2022-09-27T07:58:57;11.30;99.90
20670;DHT22;10494;50.868;4.180;2022-09-27T08:01:23;11.10;99.90
20670;DHT22;10494;50.868;4.180;2022-09-27T08:03:49;11.20;99.90
20670;DHT22;10494;50.868;4.180;2022-09-27T08:06:14;11.10;99.90
20670;DHT22;10494;50.868;4.180;2022-09-27T08:08:40;11.10;99.90
20670;DHT22;10494;50.868;4.180;2022-09-27T08:11:14;11.00;99.90
20670;DHT22;10494;50.868;4.180;2022-09-27T08:13:44;11.10;99.90
20670;DHT22;10494;50.868;4.180;2022-09-27T08:16:10;11.00;99.90
20670;DHT22;10494;50.868;4.180;2022-09-27T08:18:36;11.00;99.90
20670;DHT22;10494;50.868;4.180;2022-09-27T08:21:02;11.20;99.90
20670;DHT22;10494;50.868;4.180;2022-09-27T08:23:29;11.20;99.90
20670;DHT22;10494;50.868;4.180;2022-09-27T08:25:55;10.90;99.90
20670;DHT22;10494;50.868;4.180;2022-09-27T08:28:24;10.80;99.90
20670;DHT22;10494;50.868;4.180;2022-09-27T08:30:50;10.80;99.90
20670;DHT22;10494;50.868;4.180;2022-09-27T08:33:16;10.70;99.90
20670;DHT22;10494;50.868;4.180;2022-09-27T08:35:41;10.80;99.90
20670;DHT22;10494;50.868;4.180;2022-09-27T08:38:09;10.70;99.90
20670;DHT22;10494;50.868;4.180;2022-09-27T08:41:05;10.80;99.90
20670;DHT22;10494;50.868;4.180;2022-09-27T08:43:53;10.80;99.90
20670;DHT22;10494;50.868;4.180;2022-09-27T08:49:49;11.00;99.90
20670;DHT22;10494;50.868;4.180;2022-09-27T08:52:39;10.80;99.90
20670;DHT22;10494;50.868;4.180;2022-09-27T08:55:29;10.80;99.90
20670;DHT22;10494;50.868;4.180;2022-09-27T08:57:58;10.60;99.90
20670;DHT22;10494;50.868;4.180;2022-09-27T09:00:24;10.40;99.90
20670;DHT22;10494;50.868;4.180;2022-09-27T09:02:51;10.40;99.90
20670;DHT22;10494;50.868;4.180;2022-09-27T09:05:30;10.40;99.90
20670;DHT22;10494;50.868;4.180;2022-09-27T09:08:18;10.50;99.90
20670;DHT22;10494;50.868;4.180;2022-09-27T09:10:56;10.60;99.90
20670;DHT22;10494;50.868;4.180;2022-09-27T09:13:56;10.50;99.90
20670;DHT22;10494;50.868;4.180;2022-09-27T09:24:58;11.20;99.90
20670;DHT22;10494;50.868;4.180;2022-09-27T09:27:46;11.20;99.90
20670;DHT22;10494;50.868;4.180;2022-09-27T09:30:22;11.40;99.90
20670;DHT22;10494;50.868;4.180;2022-09-27T09:33:12;11.90;99.90
20670;DHT22;10494;50.868;4.180;2022-09-27T09:35:41;12.40;99.90
20670;DHT22;10494;50.868;4.180;2022-09-27T09:38:39;13.00;99.90
20670;DHT22;10494;50.868;4.180;2022-09-27T09:41:26;14.20;99.90
20670;DHT22;10494;50.868;4.180;2022-09-27T09:44:20;15.00;99.90
20670;DHT22;10494;50.868;4.180;2022-09-27T09:46:45;15.30;99.90
20670;DHT22;10494;50.868;4.180;2022-09-27T09:49:17;15.60;99.90
20670;DHT22;10494;50.868;4.180;2022-09-27T09:51:47;15.40;99.90
20670;DHT22;10494;50.868;4.180;2022-09-27T09:57:14;15.50;99.90
20670;DHT22;10494;50.868;4.180;2022-09-27T09:59:46;15.90;99.90
20670;DHT22;10494;50.868;4.180;2022-09-27T10:02:35;16.00;99.90
20670;DHT22;10494;50.868;4.180;2022-09-27T10:05:03;15.80;99.90
20670;DHT22;10494;50.868;4.180;2022-09-27T10:07:30;15.60;99.90
20670;DHT22;10494;50.868;4.180;2022-09-27T10:09:59;15.40;99.90
20670;DHT22;10494;50.868;4.180;2022-09-27T10:12:27;15.20;99.90
20670;DHT22;10494;50.868;4.180;2022-09-27T10:14:55;15.10;99.90
20670;DHT22;10494;50.868;4.180;2022-09-27T10:17:24;15.10;99.90
20670;DHT22;10494;50.868;4.180;2022-09-27T10:19:51;14.70;99.90
20670;DHT22;10494;50.868;4.180;2022-09-27T10:22:22;14.40;99.90
20670;DHT22;10494;50.868;4.180;2022-09-27T10:24:57;14.20;99.90
20670;DHT22;10494;50.868;4.180;2022-09-27T10:27:25;14.60;99.90
20670;DHT22;10494;50.868;4.180;2022-09-27T10:29:58;14.70;99.90
20670;DHT22;10494;50.868;4.180;2022-09-27T10:32:32;14.40;99.90
20670;DHT22;10494;50.868;4.180;2022-09-27T10:35:34;14.60;99.90
20670;DHT22;10494;50.868;4.180;2022-09-27T10:38:20;14.90;99.90
20670;DHT22;10494;50.868;4.180;2022-09-27T10:40:51;15.20;99.90
20670;DHT22;10494;50.868;4.180;2022-09-27T10:43:31;15.30;99.90
20670;DHT22;10494;50.868;4.180;2022-09-27T10:46:20;15.70;99.90
20670;DHT22;10494;50.868;4.180;2022-09-27T10:49:12;16.30;99.90
20670;DHT22;10494;50.868;4.180;2022-09-27T10:51:42;16.20;99.90
20670;DHT22;10494;50.868;4.180;2022-09-27T10:54:26;16.00;99.90
20670;DHT22;10494;50.868;4.180;2022-09-27T10:59:28;15.00;99.90
20670;DHT22;10494;50.868;4.180;2022-09-27T11:01:56;14.40;99.90
20670;DHT22;10494;50.868;4.180;2022-09-27T11:04:25;13.70;99.90
20670;DHT22;10494;50.868;4.180;2022-09-27T11:06:51;13.10;99.90
20670;DHT22;10494;50.868;4.180;2022-09-27T11:09:26;12.60;99.90
20670;DHT22;10494;50.868;4.180;2022-09-27T11:12:11;12.20;99.90
20670;DHT22;10494;50.868;4.180;2022-09-27T11:14:38;12.30;99.90
20670;DHT22;10494;50.868;4.180;2022-09-27T11:17:17;12.30;99.90
20670;DHT22;10494;50.868;4.180;2022-09-27T11:28:14;13.20;99.90
20670;DHT22;10494;50.868;4.180;2022-09-27T11:33:55;13.70;99.90
20670;DHT22;10494;50.868;4.180;2022-09-27T11:39:22;13.40;99.90
20670;DHT22;10494;50.868;4.180;2022-09-27T11:47:20;12.60;99.90
20670;DHT22;10494;50.868;4.180;2022-09-27T11:55:57;13.00;99.90
20670;DHT22;10494;50.868;4.180;2022-09-27T11:58:36;13.20;99.90
20670;DHT22;10494;50.868;4.180;2022-09-27T12:04:09;13.60;99.90
20670;DHT22;10494;50.868;4.180;2022-09-27T12:06:44;13.70;99.90
20670;DHT22;10494;50.868;4.180;2022-09-27T12:09:18;14.00;99.90
20670;DHT22;10494;50.868;4.180;2022-09-27T12:11:45;14.30;99.90
20670;DHT22;10494;50.868;4.180;2022-09-27T12:14:32;14.40;99.90
20670;DHT22;10494;50.868;4.180;2022-09-27T12:17:02;14.50;99.90
20670;DHT22;10494;50.868;4.180;2022-09-27T12:19:37;14.20;99.90
20670;DHT22;10494;50.868;4.180;2022-09-27T12:22:06;14.40;99.90
20670;DHT22;10494;50.868;4.180;2022-09-27T12:24:32;14.50;99.90
20670;DHT22;10494;50.868;4.180;2022-09-27T12:27:03;14.50;99.90
20670;DHT22;10494;50.868;4.180;2022-09-27T12:29:35;14.40;99.90
20670;DHT22;10494;50.868;4.180;2022-09-27T12:32:17;14.40;99.90
20670;DHT22;10494;50.868;4.180;2022-09-27T12:40:31;13.80;99.90
20670;DHT22;10494;50.868;4.180;2022-09-27T12:43:21;13.30;99.90
20670;DHT22;10494;50.868;4.180;2022-09-27T12:51:18;12.40;99.90
20670;DHT22;10494;50.868;4.180;2022-09-27T12:59:45;13.10;99.90
20670;DHT22;10494;50.868;4.180;2022-09-27T13:13:48;14.50;99.90
20670;DHT22;10494;50.868;4.180;2022-09-27T13:16:18;14.30;99.90
20670;DHT22;10494;50.868;4.180;2022-09-27T13:24:45;14.10;99.90
20670;DHT22;10494;50.868;4.180;2022-09-27T13:32:38;13.80;99.90
20670;DHT22;10494;50.868;4.180;2022-09-27T13:35:21;13.70;99.90
20670;DHT22;10494;50.868;4.180;2022-09-27T13:37:56;13.90;99.90
20670;DHT22;10494;50.868;4.180;2022-09-27T13:40:24;14.00;99.90
20670;DHT22;10494;50.868;4.180;2022-09-27T13:45:56;14.20;99.90
20670;DHT22;10494;50.868;4.180;2022-09-27T13:51:02;14.50;99.90
20670;DHT22;10494;50.868;4.180;2022-09-27T13:53:35;14.40;99.90
20670;DHT22;10494;50.868;4.180;2022-09-27T13:56:03;14.60;99.90
20670;DHT22;10494;50.868;4.180;2022-09-27T13:58:51;14.70;99.90
20670;DHT22;10494;50.868;4.180;2022-09-27T14:01:28;14.80;99.90
20670;DHT22;10494;50.868;4.180;2022-09-27T14:03:59;14.90;99.90
20670;DHT22;10494;50.868;4.180;2022-09-27T14:06:33;15.00;99.90
20670;DHT22;10494;50.868;4.180;2022-09-27T14:09:19;15.00;99.90
20670;DHT22;10494;50.868;4.180;2022-09-27T14:11:53;15.30;99.90
20670;DHT22;10494;50.868;4.180;2022-09-27T14:14:23;15.50;99.90
20670;DHT22;10494;50.868;4.180;2022-09-27T14:16:50;15.50;99.90
20670;DHT22;10494;50.868;4.180;2022-09-27T14:19:21;15.50;99.90
20670;DHT22;10494;50.868;4.180;2022-09-27T14:24:53;15.60;99.90
20670;DHT22;10494;50.868;4.180;2022-09-27T14:27:24;15.50;99.90
20670;DHT22;10494;50.868;4.180;2022-09-27T14:29:56;15.70;99.90
20670;DHT22;10494;50.868;4.180;2022-09-27T14:32:24;15.80;99.90
20670;DHT22;10494;50.868;4.180;2022-09-27T14:37:57;15.50;99.90
20670;DHT22;10494;50.868;4.180;2022-09-27T14:40:24;15.00;99.90
20670;DHT22;10494;50.868;4.180;2022-09-27T14:42:54;14.30;99.90
20670;DHT22;10494;50.868;4.180;2022-09-27T14:47:49;13.70;99.90
20670;DHT22;10494;50.868;4.180;2022-09-27T14:50:28;13.50;99.90
20670;DHT22;10494;50.868;4.180;2022-09-27T14:52:57;13.50;99.90
20670;DHT22;10494;50.868;4.180;2022-09-27T14:55:27;13.40;99.90
20670;DHT22;10494;50.868;4.180;2022-09-27T14:57:59;13.60;99.90
20670;DHT22;10494;50.868;4.180;2022-09-27T15:00:29;13.40;99.90
20670;DHT22;10494;50.868;4.180;2022-09-27T15:03:04;13.30;99.90
20670;DHT22;10494;50.868;4.180;2022-09-27T15:05:34;13.20;99.90
20670;DHT22;10494;50.868;4.180;2022-09-27T15:08:02;12.90;99.90
20670;DHT22;10494;50.868;4.180;2022-09-27T15:10:34;12.40;99.90
20670;DHT22;10494;50.868;4.180;2022-09-27T15:13:03;12.60;99.90
20670;DHT22;10494;50.868;4.180;2022-09-27T15:15:36;12.80;99.90
20670;DHT22;10494;50.868;4.180;2022-09-27T15:18:39;13.10;99.90
20670;DHT22;10494;50.868;4.180;2022-09-27T15:21:11;13.30;99.90
20670;DHT22;10494;50.868;4.180;2022-09-27T15:23:39;13.60;99.90
20670;DHT22;10494;50.868;4.180;2022-09-27T15:28:57;14.00;99.90
20670;DHT22;10494;50.868;4.180;2022-09-27T15:31:31;14.00;99.90
20670;DHT22;10494;50.868;4.180;2022-09-27T15:33:57;14.00;99.90
20670;DHT22;10494;50.868;4.180;2022-09-27T15:39:57;14.40;99.90
20670;DHT22;10494;50.868;4.180;2022-09-27T15:42:12;14.50;99.90
20670;DHT22;10494;50.868;4.180;2022-09-27T15:44:48;14.40;99.90
20670;DHT22;10494;50.868;4.180;2022-09-27T15:52:45;14.60;99.90
20670;DHT22;10494;50.868;4.180;2022-09-27T15:55:26;14.60;99.90
20670;DHT22;10494;50.868;4.180;2022-09-27T15:57:58;14.50;99.90
20670;DHT22;10494;50.868;4.180;2022-09-27T16:00:25;14.60;99.90
20670;DHT22;10494;50.868;4.180;2022-09-27T16:02:51;14.70;99.90
20670;DHT22;10494;50.868;4.180;2022-09-27T16:05:17;14.70;99.90
20670;DHT22;10494;50.868;4.180;2022-09-27T16:07:42;14.70;99.90
20670;DHT22;10494;50.868;4.180;2022-09-27T16:10:17;14.60;99.90
20670;DHT22;10494;50.868;4.180;2022-09-27T16:12:43;14.50;99.90
20670;DHT22;10494;50.868;4.180;2022-09-27T16:15:10;14.40;99.90
20670;DHT22;10494;50.868;4.180;2022-09-27T16:17:36;14.20;99.90
20670;DHT22;10494;50.868;4.180;2022-09-27T16:20:06;14.10;99.90
20670;DHT22;10494;50.868;4.180;2022-09-27T16:22:31;14.10;99.90
20670;DHT22;10494;50.868;4.180;2022-09-27T16:24:57;14.10;99.90
20670;DHT22;10494;50.868;4.180;2022-09-27T16:27:24;14.10;99.90
20670;DHT22;10494;50.868;4.180;2022-09-27T16:29:52;14.00;99.90
20670;DHT22;10494;50.868;4.180;2022-09-27T16:32:18;14.00;99.90
20670;DHT22;10494;50.868;4.180;2022-09-27T16:34:43;14.00;99.90
20670;DHT22;10494;50.868;4.180;2022-09-27T16:37:09;14.00;99.90
20670;DHT22;10494;50.868;4.180;2022-09-27T16:39:35;13.90;99.90
20670;DHT22;10494;50.868;4.180;2022-09-27T16:42:01;13.80;99.90
20670;DHT22;10494;50.868;4.180;2022-09-27T16:44:33;13.80;99.90
20670;DHT22;10494;50.868;4.180;2022-09-27T16:47:03;13.90;99.90
20670;DHT22;10494;50.868;4.180;2022-09-27T16:49:29;13.90;99.90
20670;DHT22;10494;50.868;4.180;2022-09-27T16:52:14;13.90;99.90
20670;DHT22;10494;50.868;4.180;2022-09-27T16:54:41;13.90;99.90
20670;DHT22;10494;50.868;4.180;2022-09-27T16:57:07;13.80;99.90
20670;DHT22;10494;50.868;4.180;2022-09-27T16:59:32;13.80;99.90
20670;DHT22;10494;50.868;4.180;2022-09-27T17:01:58;13.70;99.90
20670;DHT22;10494;50.868;4.180;2022-09-27T17:04:27;13.70;99.90
20670;DHT22;10494;50.868;4.180;2022-09-27T17:06:54;13.70;99.90
20670;DHT22;10494;50.868;4.180;2022-09-27T17:09:20;13.60;99.90
20670;DHT22;10494;50.868;4.180;2022-09-27T17:11:45;13.60;99.90
20670;DHT22;10494;50.868;4.180;2022-09-27T17:14:12;13.50;99.90
20670;DHT22;10494;50.868;4.180;2022-09-27T17:16:39;13.50;99.90
20670;DHT22;10494;50.868;4.180;2022-09-27T17:19:05;13.50;99.90
20670;DHT22;10494;50.868;4.180;2022-09-27T17:21:30;13.50;99.90
20670;DHT22;10494;50.868;4.180;2022-09-27T17:23:56;13.40;99.90
20670;DHT22;10494;50.868;4.180;2022-09-27T17:26:22;13.40;99.90
20670;DHT22;10494;50.868;4.180;2022-09-27T17:28:49;13.50;99.90
20670;DHT22;10494;50.868;4.180;2022-09-27T17:31:17;13.60;99.90
20670;DHT22;10494;50.868;4.180;2022-09-27T17:33:45;13.40;99.90
20670;DHT22;10494;50.868;4.180;2022-09-27T17:36:13;13.50;99.90
20670;DHT22;10494;50.868;4.180;2022-09-27T17:38:40;13.40;99.90
20670;DHT22;10494;50.868;4.180;2022-09-27T17:41:07;13.00;99.90
20670;DHT22;10494;50.868;4.180;2022-09-27T17:43:37;12.50;99.90
20670;DHT22;10494;50.868;4.180;2022-09-27T17:46:08;12.40;99.90
20670;DHT22;10494;50.868;4.180;2022-09-27T17:48:35;12.20;99.90
20670;DHT22;10494;50.868;4.180;2022-09-27T17:51:19;12.20;99.90
20670;DHT22;10494;50.868;4.180;2022-09-27T17:53:45;12.30;99.90
20670;DHT22;10494;50.868;4.180;2022-09-27T17:56:11;11.80;99.90
20670;DHT22;10494;50.868;4.180;2022-09-27T17:58:37;11.80;99.90
20670;DHT22;10494;50.868;4.180;2022-09-27T18:01:05;11.80;99.90
20670;DHT22;10494;50.868;4.180;2022-09-27T18:03:32;11.80;99.90
20670;DHT22;10494;50.868;4.180;2022-09-27T18:06:02;11.30;99.90
20670;DHT22;10494;50.868;4.180;2022-09-27T18:08:28;10.90;99.90
20670;DHT22;10494;50.868;4.180;2022-09-27T18:10:54;10.60;99.90
20670;DHT22;10494;50.868;4.180;2022-09-27T18:13:20;10.60;99.90
20670;DHT22;10494;50.868;4.180;2022-09-27T18:15:54;10.90;99.90
20670;DHT22;10494;50.868;4.180;2022-09-27T18:18:22;10.70;99.90
20670;DHT22;10494;50.868;4.180;2022-09-27T18:20:49;10.70;99.90
20670;DHT22;10494;50.868;4.180;2022-09-27T18:23:14;10.80;99.90
20670;DHT22;10494;50.868;4.180;2022-09-27T18:25:40;10.90;99.90
20670;DHT22;10494;50.868;4.180;2022-09-27T18:28:05;10.90;99.90
20670;DHT22;10494;50.868;4.180;2022-09-27T18:30:32;10.90;99.90